createdAt,value
2023-05-10T00:01:20.183Z,1010.86
2023-05-10T00:03:20.321Z,1010.80
2023-05-10T00:05:20.215Z,1010.79
2023-05-10T00:07:20.171Z,1010.79
2023-05-10T00:09:20.194Z,1010.79
2023-05-10T00:11:22.894Z,1010.82
2023-05-10T00:13:20.199Z,1010.85
2023-05-10T00:15:20.160Z,1010.83
2023-05-10T00:17:20.199Z,1010.83
2023-05-10T00:19:20.195Z,1010.80
2023-05-10T00:21:20.276Z,1010.78
2023-05-10T00:23:20.227Z,1010.76
2023-05-10T00:25:20.268Z,1010.80
2023-05-10T00:27:20.161Z,1010.80
2023-05-10T00:30:21.727Z,1010.77
2023-05-10T00:32:20.282Z,1010.77
2023-05-10T00:34:20.493Z,1010.80
2023-05-10T00:35:22.536Z,1010.76
2023-05-10T00:38:20.215Z,1010.78
2023-05-10T00:40:20.267Z,1010.78
2023-05-10T00:42:20.335Z,1010.78
2023-05-10T00:44:20.240Z,1010.79
2023-05-10T00:46:20.309Z,1010.78
2023-05-10T00:48:20.260Z,1010.85
2023-05-10T00:50:20.181Z,1010.85
2023-05-10T00:52:20.191Z,1010.86
2023-05-10T00:54:20.142Z,1010.79
2023-05-10T00:56:20.270Z,1010.76
2023-05-10T00:58:20.174Z,1010.74
2023-05-10T01:00:20.210Z,1010.74
2023-05-10T01:02:20.310Z,1010.77
2023-05-10T01:04:20.336Z,1010.75
2023-05-10T01:06:20.389Z,1010.77
2023-05-10T01:08:20.184Z,1010.80
2023-05-10T01:10:23.215Z,1010.80
2023-05-10T01:12:20.314Z,1010.76
2023-05-10T01:14:20.200Z,1010.79
2023-05-10T01:16:20.384Z,1010.80
2023-05-10T01:18:20.290Z,1010.80
2023-05-10T01:20:20.472Z,1010.79
2023-05-10T01:22:20.304Z,1010.79
2023-05-10T01:24:20.249Z,1010.88
2023-05-10T01:26:20.257Z,1010.95
2023-05-10T01:28:20.216Z,1010.95
2023-05-10T01:32:20.264Z,1010.95
2023-05-10T01:34:20.204Z,1011.00
2023-05-10T01:36:20.299Z,1011.03
2023-05-10T01:38:20.179Z,1011.03
2023-05-10T01:40:20.254Z,1011.04
2023-05-10T01:42:20.364Z,1011.06
2023-05-10T01:44:20.344Z,1011.07
2023-05-10T01:46:20.215Z,1011.07
2023-05-10T01:48:20.223Z,1011.11
2023-05-10T01:50:20.259Z,1011.13
2023-05-10T01:52:20.256Z,1011.10
2023-05-10T01:54:20.253Z,1011.16
2023-05-10T01:56:20.331Z,1011.16
2023-05-10T01:58:20.262Z,1011.20
2023-05-10T02:00:20.256Z,1011.22
2023-05-10T02:02:20.234Z,1011.22
2023-05-10T02:04:20.434Z,1011.28
2023-05-10T02:06:20.234Z,1011.28
2023-05-10T02:08:20.271Z,1011.36
2023-05-10T02:14:28.589Z,1011.40
2023-05-10T02:16:28.903Z,1011.40
2023-05-10T02:18:28.575Z,1011.42
2023-05-10T02:20:33.511Z,1011.49
2023-05-10T02:22:28.612Z,1011.48
2023-05-10T02:24:29.005Z,1011.48
2023-05-10T02:26:28.642Z,1011.54
2023-05-10T02:28:28.722Z,1011.51
2023-05-10T02:30:28.762Z,1011.56
2023-05-10T02:32:28.699Z,1011.55
2023-05-10T02:34:28.663Z,1011.55
2023-05-10T02:36:28.795Z,1011.55
2023-05-10T02:38:30.112Z,1011.59
2023-05-10T02:40:28.951Z,1011.58
2023-05-10T02:42:28.663Z,1011.58
2023-05-10T02:44:32.021Z,1011.61
2023-05-10T02:46:28.959Z,1011.61
2023-05-10T02:48:31.071Z,1011.62
2023-05-10T02:50:28.703Z,1011.62
2023-05-10T02:52:28.708Z,1011.62
2023-05-10T02:54:28.812Z,1011.67
2023-05-10T02:56:28.859Z,1011.68
2023-05-10T02:58:29.038Z,1011.77
2023-05-10T03:00:28.775Z,1011.79
2023-05-10T03:02:28.668Z,1011.79
2023-05-10T03:04:28.592Z,1011.80
2023-05-10T03:06:28.694Z,1011.84
2023-05-10T03:08:28.824Z,1011.81
2023-05-10T03:10:28.979Z,1011.83
2023-05-10T03:12:31.684Z,1011.84
2023-05-10T03:14:28.704Z,1011.84
2023-05-10T03:16:28.842Z,1011.87
2023-05-10T03:18:33.550Z,1011.83
2023-05-10T03:20:28.788Z,1011.83
2023-05-10T03:22:28.676Z,1011.91
2023-05-10T03:24:28.717Z,1011.91
2023-05-10T03:26:28.934Z,1011.91
2023-05-10T03:28:28.662Z,1011.88
2023-05-10T03:30:28.792Z,1011.88
2023-05-10T03:32:28.806Z,1011.93
2023-05-10T03:34:28.824Z,1011.92
2023-05-10T03:36:28.928Z,1011.97
2023-05-10T03:38:30.480Z,1012.00
2023-05-10T03:40:28.751Z,1012.00
2023-05-10T03:42:28.724Z,1012.03
2023-05-10T03:44:28.732Z,1012.08
2023-05-10T03:46:29.065Z,1012.11
2023-05-10T03:48:28.863Z,1012.11
2023-05-10T03:50:28.728Z,1012.12
2023-05-10T03:52:29.076Z,1012.15
2023-05-10T03:54:28.720Z,1012.12
2023-05-10T03:56:28.809Z,1012.16
2023-05-10T03:58:28.716Z,1012.16
2023-05-10T04:00:28.681Z,1012.13
2023-05-10T04:02:28.793Z,1012.16
2023-05-10T04:04:28.720Z,1012.16
2023-05-10T04:06:28.964Z,1012.13
2023-05-10T04:08:28.751Z,1012.13
2023-05-10T04:10:28.653Z,1012.15
2023-05-10T04:12:28.779Z,1012.12
2023-05-10T04:14:29.019Z,1012.12
2023-05-10T04:16:29.918Z,1012.14
2023-05-10T04:18:29.409Z,1012.14
2023-05-10T04:20:33.498Z,1012.15
2023-05-10T04:22:28.778Z,1012.15
2023-05-10T04:24:28.809Z,1012.14
2023-05-10T04:26:28.786Z,1012.14
2023-05-10T04:28:28.735Z,1012.20
2023-05-10T04:30:28.904Z,1012.18
2023-05-10T04:32:28.710Z,1012.14
2023-05-10T04:34:29.073Z,1012.13
2023-05-10T04:37:28.663Z,1012.18
2023-05-10T04:39:28.783Z,1012.15
2023-05-10T04:41:29.092Z,1012.15
2023-05-10T04:43:28.764Z,1012.19
2023-05-10T04:45:28.720Z,1012.19
2023-05-10T04:47:28.688Z,1012.20
2023-05-10T04:49:28.838Z,1012.20
2023-05-10T04:51:32.237Z,1012.24
2023-05-10T04:53:28.721Z,1012.24
2023-05-10T04:55:28.786Z,1012.26
2023-05-10T04:57:28.810Z,1012.30
2023-05-10T04:59:30.383Z,1012.30
2023-05-10T05:01:28.691Z,1012.26
2023-05-10T05:03:28.738Z,1012.25
2023-05-10T05:05:28.917Z,1012.34
2023-05-10T05:07:28.682Z,1012.32
2023-05-10T05:09:28.710Z,1012.32
2023-05-10T05:11:31.242Z,1012.40
2023-05-10T05:13:31.691Z,1012.40
2023-05-10T05:15:29.285Z,1012.44
2023-05-10T05:17:28.744Z,1012.45
2023-05-10T05:19:28.711Z,1012.45
2023-05-10T05:21:28.804Z,1012.46
2023-05-10T05:23:28.726Z,1012.49
2023-05-10T05:25:28.847Z,1012.49
2023-05-10T05:27:28.771Z,1012.49
2023-05-10T05:29:28.691Z,1012.50
2023-05-10T05:31:28.726Z,1012.52
2023-05-10T05:33:28.709Z,1012.47
2023-05-10T05:35:28.733Z,1012.54
2023-05-10T05:37:28.800Z,1012.54
2023-05-10T05:39:28.790Z,1012.55
2023-05-10T05:41:28.707Z,1012.57
2023-05-10T05:43:28.825Z,1012.58
2023-05-10T05:45:28.705Z,1012.54
2023-05-10T05:47:28.800Z,1012.54
2023-05-10T05:49:28.911Z,1012.58
2023-05-10T05:51:28.744Z,1012.59
2023-05-10T05:53:33.612Z,1012.57
2023-05-10T05:55:28.784Z,1012.57
2023-05-10T05:57:28.759Z,1012.62
2023-05-10T05:59:28.783Z,1012.63
2023-05-10T06:01:28.893Z,1012.65
2023-05-10T06:03:28.784Z,1012.67
2023-05-10T06:05:28.912Z,1012.67
2023-05-10T06:07:28.734Z,1012.67
2023-05-10T06:09:28.794Z,1012.68
2023-05-10T06:11:28.747Z,1012.67
2023-05-10T06:13:28.869Z,1012.70
2023-05-10T06:15:28.746Z,1012.70
2023-05-10T06:17:28.775Z,1012.71
2023-05-10T06:19:28.745Z,1012.76
2023-05-10T06:21:28.822Z,1012.84
2023-05-10T06:23:28.801Z,1012.84
2023-05-10T06:25:28.838Z,1012.80
2023-05-10T06:27:28.796Z,1012.82
2023-05-10T06:29:28.809Z,1012.83
2023-05-10T06:31:28.802Z,1012.87
2023-05-10T06:33:28.798Z,1012.87
2023-05-10T06:35:31.999Z,1012.91
2023-05-10T06:37:28.751Z,1012.91
2023-05-10T06:39:29.025Z,1012.94
2023-05-10T06:41:28.839Z,1012.91
2023-05-10T06:43:28.780Z,1012.91
2023-05-10T06:45:28.807Z,1013.01
2023-05-10T06:47:28.996Z,1013.01
2023-05-10T06:49:29.035Z,1012.98
2023-05-10T06:51:28.811Z,1012.98
2023-05-10T06:53:28.791Z,1012.95
2023-05-10T06:55:33.254Z,1012.99
2023-05-10T06:57:31.744Z,1013.01
2023-05-10T06:59:29.936Z,1013.08
2023-05-10T07:01:28.858Z,1013.08
2023-05-10T07:03:30.924Z,1013.09
2023-05-10T07:05:29.170Z,1013.12
2023-05-10T07:07:28.811Z,1013.16
2023-05-10T07:09:28.803Z,1013.20
2023-05-10T07:11:29.000Z,1013.20
2023-05-10T07:13:28.889Z,1013.20
2023-05-10T07:15:28.852Z,1013.22
2023-05-10T07:17:28.940Z,1013.26
2023-05-10T07:19:28.832Z,1013.27
2023-05-10T07:21:28.889Z,1013.27
2023-05-10T07:23:28.824Z,1013.28
2023-05-10T07:25:28.912Z,1013.33
2023-05-10T07:27:28.788Z,1013.33
2023-05-10T07:29:28.798Z,1013.33
2023-05-10T07:31:28.914Z,1013.35
2023-05-10T07:33:28.799Z,1013.36
2023-05-10T07:35:28.785Z,1013.30
2023-05-10T07:37:28.821Z,1013.37
2023-05-10T07:39:28.827Z,1013.37
2023-05-10T07:41:28.897Z,1013.36
2023-05-10T07:43:28.812Z,1013.36
2023-05-10T07:45:28.842Z,1013.35
2023-05-10T07:47:28.933Z,1013.39
2023-05-10T07:49:29.504Z,1013.39
2023-05-10T07:51:28.896Z,1013.41
2023-05-10T07:53:28.927Z,1013.46
2023-05-10T07:55:28.947Z,1013.45
2023-05-10T07:57:33.719Z,1013.47
2023-05-10T07:59:28.816Z,1013.47
2023-05-10T08:01:28.934Z,1013.45
2023-05-10T08:03:29.003Z,1013.48
2023-05-10T08:05:29.216Z,1013.46
2023-05-10T08:07:28.835Z,1013.46
2023-05-10T08:09:28.936Z,1013.46
2023-05-10T08:11:28.808Z,1013.33
2023-05-10T08:13:33.018Z,1013.42
2023-05-10T08:15:28.863Z,1013.40
2023-05-10T08:18:28.951Z,1013.43
2023-05-10T08:20:29.123Z,1013.43
2023-05-10T08:22:28.855Z,1013.43
2023-05-10T08:24:33.792Z,1013.47
2023-05-10T08:26:28.838Z,1013.47
2023-05-10T08:30:06.882Z,1013.50
2023-05-10T08:32:06.173Z,1013.51
2023-05-10T08:34:06.172Z,1013.55
2023-05-10T08:36:06.216Z,1013.67
2023-05-10T08:38:06.251Z,1013.67
2023-05-10T08:40:06.141Z,1013.67
2023-05-10T08:42:06.230Z,1013.69
2023-05-10T08:44:06.196Z,1013.67
2023-05-10T08:46:07.080Z,1013.63
2023-05-10T08:48:06.289Z,1013.63
2023-05-10T08:50:06.183Z,1013.63
2023-05-10T08:52:06.216Z,1013.68
2023-05-10T08:54:06.255Z,1013.56
2023-05-10T08:56:06.364Z,1013.53
2023-05-10T08:58:07.038Z,1013.53
2023-05-10T09:00:06.348Z,1013.56
2023-05-10T09:02:06.192Z,1013.57
2023-05-10T09:04:06.378Z,1013.58
2023-05-10T09:06:06.270Z,1013.64
2023-05-10T09:08:06.247Z,1013.64
2023-05-10T09:10:06.213Z,1013.68
2023-05-10T09:12:06.349Z,1013.75
2023-05-10T09:14:06.473Z,1013.85
2023-05-10T09:16:17.463Z,1013.84
2023-05-10T09:18:06.378Z,1013.84
2023-05-10T09:20:06.173Z,1013.91
2023-05-10T09:22:06.309Z,1013.98
2023-05-10T09:24:06.218Z,1014.09
2023-05-10T09:26:06.305Z,1014.09
2023-05-10T09:28:06.245Z,1013.97
2023-05-10T09:30:10.105Z,1013.97
2023-05-10T09:32:06.269Z,1014.00
2023-05-10T09:34:06.288Z,1014.03
2023-05-10T09:36:06.202Z,1014.03
2023-05-10T09:38:06.628Z,1014.04
2023-05-10T09:40:06.374Z,1014.02
2023-05-10T09:42:06.290Z,1014.05
2023-05-10T09:44:06.311Z,1014.07
2023-05-10T09:46:06.333Z,1014.07
2023-05-10T09:48:06.435Z,1014.04
2023-05-10T09:50:06.295Z,1014.04
2023-05-10T09:52:06.751Z,1014.03
2023-05-10T09:54:06.317Z,1014.03
2023-05-10T09:56:06.304Z,1014.11
2023-05-10T09:58:06.285Z,1014.07
2023-05-10T10:00:06.428Z,1014.05
2023-05-10T10:02:06.347Z,1014.05
2023-05-10T10:04:06.299Z,1014.05
2023-05-10T10:06:11.187Z,1014.01
2023-05-10T10:08:06.286Z,1014.01
2023-05-10T10:10:06.332Z,1014.01
2023-05-10T10:12:06.279Z,1014.06
2023-05-10T10:14:06.675Z,1014.06
2023-05-10T10:16:09.456Z,1014.03
2023-05-10T10:18:06.325Z,1013.98
2023-05-10T10:20:06.289Z,1014.02
2023-05-10T10:22:06.318Z,1014.01
2023-05-10T10:24:06.456Z,1014.01
2023-05-10T10:26:06.295Z,1014.03
2023-05-10T10:28:06.244Z,1014.04
2023-05-10T10:30:06.374Z,1014.00
2023-05-10T10:32:09.647Z,1014.00
2023-05-10T10:34:06.649Z,1013.99
2023-05-10T10:37:06.709Z,1014.01
2023-05-10T10:39:06.502Z,1013.99
2023-05-10T10:41:06.262Z,1013.97
2023-05-10T10:43:06.690Z,1013.98
2023-05-10T10:45:06.263Z,1014.02
2023-05-10T10:46:09.460Z,1014.02
2023-05-10T10:49:06.314Z,1014.06
2023-05-10T10:51:06.289Z,1014.06
2023-05-10T10:53:06.494Z,1014.00
2023-05-10T10:55:06.353Z,1014.00
2023-05-10T10:57:06.235Z,1014.02
2023-05-10T10:59:06.355Z,1014.01
2023-05-10T11:01:06.426Z,1014.00
2023-05-10T11:03:09.327Z,1013.97
2023-05-10T11:05:06.310Z,1013.97
2023-05-10T11:07:06.529Z,1014.06
2023-05-10T11:09:06.338Z,1013.99
2023-05-10T11:11:06.507Z,1013.96
2023-05-10T11:13:06.397Z,1013.96
2023-05-10T11:15:06.286Z,1013.96
2023-05-10T11:17:06.371Z,1014.02
2023-05-10T11:19:06.368Z,1014.05
2023-05-10T11:21:06.335Z,1013.99
2023-05-10T11:23:06.308Z,1013.97
2023-05-10T11:25:06.295Z,1013.97
2023-05-10T11:27:06.434Z,1014.00
2023-05-10T11:29:06.302Z,1014.06
2023-05-10T11:31:06.586Z,1014.06
2023-05-10T11:33:06.285Z,1014.06
2023-05-10T11:35:06.457Z,1014.07
2023-05-10T11:37:06.431Z,1014.05
2023-05-10T11:39:06.362Z,1014.08
2023-05-10T11:41:06.289Z,1014.09
2023-05-10T11:43:08.156Z,1014.09
2023-05-10T11:45:06.376Z,1014.05
2023-05-10T11:47:06.275Z,1014.08
2023-05-10T11:49:06.329Z,1014.05
2023-05-10T11:51:06.408Z,1014.12
2023-05-10T11:53:06.463Z,1014.12
2023-05-10T11:55:06.484Z,1014.07
2023-05-10T11:57:06.614Z,1014.13
2023-05-10T11:59:06.304Z,1014.12
2023-05-10T12:01:06.379Z,1014.12
2023-05-10T12:03:06.500Z,1014.12
2023-05-10T12:05:09.602Z,1014.13
2023-05-10T12:07:06.322Z,1014.08
2023-05-10T12:09:06.334Z,1014.10
2023-05-10T12:11:06.382Z,1014.10
2023-05-10T12:13:06.343Z,1014.10
2023-05-10T12:15:06.384Z,1014.19
2023-05-10T12:17:08.684Z,1014.22
2023-05-10T12:19:06.722Z,1014.23
2023-05-10T12:21:06.466Z,1014.23
2023-05-10T12:23:06.513Z,1014.27
2023-05-10T12:25:06.388Z,1014.28
2023-05-10T12:27:06.364Z,1014.26
2023-05-10T12:29:06.558Z,1014.26
2023-05-10T12:31:06.344Z,1014.29
2023-05-10T12:33:06.357Z,1014.35
2023-05-10T12:35:06.748Z,1014.37
2023-05-10T12:37:06.315Z,1014.40
2023-05-10T12:39:06.433Z,1014.40
2023-05-10T12:41:06.393Z,1014.38
2023-05-10T12:43:06.353Z,1014.38
2023-05-10T12:45:06.623Z,1014.41
2023-05-10T12:47:06.375Z,1014.45
2023-05-10T12:49:09.636Z,1014.45
2023-05-10T12:51:06.482Z,1014.47
2023-05-10T12:53:06.431Z,1014.47
2023-05-10T12:55:07.322Z,1014.48
2023-05-10T12:57:06.525Z,1014.48
2023-05-10T12:59:06.382Z,1014.61
2023-05-10T13:01:06.541Z,1014.60
2023-05-10T13:03:06.458Z,1014.72
2023-05-10T13:05:06.536Z,1014.73
2023-05-10T13:07:06.413Z,1014.73
2023-05-10T13:09:06.423Z,1014.73
2023-05-10T13:11:09.360Z,1014.76
2023-05-10T13:13:06.653Z,1014.76
2023-05-10T13:15:06.704Z,1014.76
2023-05-10T13:17:06.488Z,1014.76
2023-05-10T13:19:06.394Z,1014.74
2023-05-10T13:21:06.473Z,1014.73
2023-05-10T13:23:06.364Z,1014.75
2023-05-10T13:25:06.413Z,1014.75
2023-05-10T13:27:06.436Z,1014.75
2023-05-10T13:29:08.732Z,1014.81
2023-05-10T13:31:06.610Z,1014.82
2023-05-10T13:33:06.465Z,1014.82
2023-05-10T13:35:06.508Z,1014.82
2023-05-10T13:37:06.514Z,1014.79
2023-05-10T13:39:06.441Z,1014.78
2023-05-10T13:41:06.503Z,1014.77
2023-05-10T13:43:06.514Z,1014.78
2023-05-10T13:45:06.469Z,1014.78
2023-05-10T13:47:06.650Z,1014.80
2023-05-10T13:49:06.520Z,1014.76
2023-05-10T13:51:06.459Z,1014.78
2023-05-10T13:53:06.506Z,1014.76
2023-05-10T13:55:06.420Z,1014.76
2023-05-10T13:57:06.689Z,1014.80
2023-05-10T13:59:06.377Z,1014.72
2023-05-10T14:01:06.725Z,1014.74
2023-05-10T14:03:06.533Z,1014.74
2023-05-10T14:05:06.555Z,1014.72
2023-05-10T14:07:06.535Z,1014.70
2023-05-10T14:09:15.424Z,1014.68
2023-05-10T14:11:09.228Z,1014.67
2023-05-10T14:13:09.536Z,1014.67
2023-05-10T14:15:06.442Z,1014.67
2023-05-10T14:18:06.538Z,1014.68
2023-05-10T14:20:07.329Z,1014.69
2023-05-10T14:22:06.766Z,1014.66
2023-05-10T14:24:06.437Z,1014.63
2023-05-10T14:26:06.501Z,1014.63
2023-05-10T14:28:06.593Z,1014.63
2023-05-10T14:30:06.660Z,1014.60
2023-05-10T14:32:06.601Z,1014.61
2023-05-10T14:34:06.607Z,1014.60
2023-05-10T14:36:06.387Z,1014.60
2023-05-10T14:38:06.579Z,1014.59
2023-05-10T14:41:14.932Z,1014.57
2023-05-10T14:43:17.841Z,1014.57
2023-05-10T14:45:15.026Z,1014.56
2023-05-10T14:48:14.908Z,1014.53
2023-05-10T14:50:24.765Z,1014.56
2023-05-10T14:52:14.884Z,1014.62
2023-05-10T14:54:14.934Z,1014.62
2023-05-10T14:56:14.890Z,1014.62
2023-05-10T14:58:14.971Z,1014.64
2023-05-10T15:00:15.011Z,1014.64
2023-05-10T15:02:14.983Z,1014.62
2023-05-10T15:04:14.904Z,1014.62
2023-05-10T15:06:15.165Z,1014.61
2023-05-10T15:08:14.916Z,1014.58
2023-05-10T15:10:14.904Z,1014.65
2023-05-10T15:12:15.022Z,1014.62
2023-05-10T15:14:17.783Z,1014.62
2023-05-10T15:16:14.963Z,1014.63
2023-05-10T15:18:15.029Z,1014.66
2023-05-10T15:20:15.329Z,1014.66
2023-05-10T15:22:15.549Z,1014.67
2023-05-10T15:24:14.956Z,1014.67
2023-05-10T15:26:15.755Z,1014.67
2023-05-10T15:28:14.891Z,1014.68
2023-05-10T15:30:16.694Z,1014.68
2023-05-10T15:32:15.148Z,1014.68
2023-05-10T15:34:15.148Z,1014.69
2023-05-10T15:36:14.927Z,1014.69
2023-05-10T15:38:15.025Z,1014.72
2023-05-10T15:40:15.029Z,1014.75
2023-05-10T15:42:14.948Z,1014.75
2023-05-10T15:44:14.910Z,1014.79
2023-05-10T15:46:14.931Z,1014.81
2023-05-10T15:48:14.946Z,1014.78
2023-05-10T15:50:15.025Z,1014.82
2023-05-10T15:52:14.971Z,1014.82
2023-05-10T15:54:16.394Z,1014.85
2023-05-10T15:56:15.061Z,1014.83
2023-05-10T15:58:15.012Z,1014.84
2023-05-10T16:00:15.001Z,1014.84
2023-05-10T16:02:14.961Z,1014.86
2023-05-10T16:04:14.972Z,1014.86
2023-05-10T16:06:14.995Z,1014.85
2023-05-10T16:08:15.015Z,1014.85
2023-05-10T16:10:14.961Z,1014.85
2023-05-10T16:12:15.200Z,1014.88
2023-05-10T16:14:15.062Z,1014.89
2023-05-10T16:16:18.335Z,1014.89
2023-05-10T16:18:15.047Z,1014.93
2023-05-10T16:20:15.013Z,1014.93
2023-05-10T16:22:14.968Z,1014.91
2023-05-10T16:24:14.936Z,1014.95
2023-05-10T16:26:14.988Z,1014.93
2023-05-10T16:28:15.039Z,1014.88
2023-05-10T16:30:15.004Z,1014.88
2023-05-10T16:32:15.006Z,1014.94
2023-05-10T16:34:14.936Z,1014.96
2023-05-10T16:36:18.714Z,1014.93
2023-05-10T16:38:15.210Z,1014.93
2023-05-10T16:40:14.987Z,1014.92
2023-05-10T16:42:14.962Z,1014.90
2023-05-10T16:44:14.996Z,1014.94
2023-05-10T16:46:15.069Z,1014.99
2023-05-10T16:48:14.971Z,1014.99
2023-05-10T16:50:15.011Z,1015.00
2023-05-10T16:52:19.920Z,1015.01
2023-05-10T16:54:14.984Z,1015.02
2023-05-10T16:56:15.048Z,1015.02
2023-05-10T16:58:15.062Z,1015.02
2023-05-10T17:00:14.984Z,1015.08
2023-05-10T17:02:15.222Z,1015.06
2023-05-10T17:04:14.998Z,1015.03
2023-05-10T17:06:15.148Z,1015.03
2023-05-10T17:08:14.988Z,1015.11
2023-05-10T17:10:15.033Z,1015.10
2023-05-10T17:12:15.036Z,1015.13
2023-05-10T17:14:15.013Z,1015.12
2023-05-10T17:16:15.141Z,1015.12
2023-05-10T17:18:14.982Z,1015.14
2023-05-10T17:20:20.639Z,1015.15
2023-05-10T17:22:15.168Z,1015.17
2023-05-10T17:24:15.062Z,1015.18
2023-05-10T17:26:15.071Z,1015.18
2023-05-10T17:28:15.194Z,1015.16
2023-05-10T17:30:15.122Z,1015.16
2023-05-10T17:32:15.000Z,1015.18
2023-05-10T17:34:15.103Z,1015.18
2023-05-10T17:36:15.025Z,1015.20
2023-05-10T17:38:15.159Z,1015.20
2023-05-10T17:40:15.153Z,1015.24
2023-05-10T17:42:16.365Z,1015.19
2023-05-10T17:44:15.157Z,1015.19
2023-05-10T17:46:15.046Z,1015.20
2023-05-10T17:48:18.247Z,1015.23
2023-05-10T17:50:25.729Z,1015.22
2023-05-10T17:52:15.024Z,1015.21
2023-05-10T17:54:15.094Z,1015.21
2023-05-10T17:56:15.561Z,1015.23
2023-05-10T17:58:15.258Z,1015.17
2023-05-10T18:00:15.089Z,1015.21
2023-05-10T18:02:15.062Z,1015.21
2023-05-10T18:04:15.062Z,1015.24
2023-05-10T18:06:15.034Z,1015.27
2023-05-10T18:08:14.980Z,1015.22
2023-05-10T18:10:15.202Z,1015.22
2023-05-10T18:12:15.014Z,1015.22
2023-05-10T18:14:17.132Z,1015.22
2023-05-10T18:16:17.466Z,1015.25
2023-05-10T18:18:14.993Z,1015.25
2023-05-10T18:20:15.151Z,1015.29
2023-05-10T18:22:15.217Z,1015.29
2023-05-10T18:24:16.751Z,1015.30
2023-05-10T18:26:15.188Z,1015.32
2023-05-10T18:28:16.346Z,1015.34
2023-05-10T18:30:22.244Z,1015.34
2023-05-10T18:32:18.317Z,1015.34
2023-05-10T18:34:20.024Z,1015.31
2023-05-10T18:37:20.066Z,1015.34
2023-05-10T18:39:16.777Z,1015.33
2023-05-10T18:41:15.104Z,1015.36
2023-05-10T18:43:15.057Z,1015.39
2023-05-10T18:45:15.259Z,1015.39
2023-05-10T18:47:15.118Z,1015.38
2023-05-10T18:49:15.056Z,1015.39
2023-05-10T18:51:15.085Z,1015.38
2023-05-10T18:53:15.033Z,1015.39
2023-05-10T18:55:15.261Z,1015.39
2023-05-10T18:57:15.127Z,1015.37
2023-05-10T18:59:20.017Z,1015.37
2023-05-10T19:01:15.111Z,1015.40
2023-05-10T19:03:15.215Z,1015.40
2023-05-10T19:05:15.298Z,1015.42
2023-05-10T19:07:15.141Z,1015.43
2023-05-10T19:09:15.260Z,1015.43
2023-05-10T19:11:15.125Z,1015.47
2023-05-10T19:13:15.093Z,1015.47
2023-05-10T19:15:15.662Z,1015.52
2023-05-10T19:17:15.687Z,1015.48
2023-05-10T19:19:15.272Z,1015.53
2023-05-10T19:21:17.785Z,1015.59
2023-05-10T19:23:16.509Z,1015.59
2023-05-10T19:25:15.346Z,1015.55
2023-05-10T19:27:16.257Z,1015.55
2023-05-10T19:29:15.104Z,1015.59
2023-05-10T19:31:15.176Z,1015.58
2023-05-10T19:33:15.292Z,1015.58
2023-05-10T19:35:15.916Z,1015.58
2023-05-10T19:37:15.432Z,1015.66
2023-05-10T19:39:15.238Z,1015.66
2023-05-10T19:41:15.170Z,1015.66
2023-05-10T19:43:15.257Z,1015.65
2023-05-10T19:45:15.238Z,1015.62
2023-05-10T19:47:15.373Z,1015.65
2023-05-10T19:49:15.260Z,1015.65
2023-05-10T19:51:15.460Z,1015.65
2023-05-10T19:53:15.169Z,1015.63
2023-05-10T19:55:17.699Z,1015.68
2023-05-10T19:57:15.130Z,1015.62
2023-05-10T19:59:15.106Z,1015.62
2023-05-10T20:01:19.685Z,1015.62
2023-05-10T20:03:15.138Z,1015.62
2023-05-10T20:05:16.704Z,1015.60
2023-05-10T20:07:15.102Z,1015.62
2023-05-10T20:09:15.048Z,1015.62
2023-05-10T20:11:15.582Z,1015.65
2023-05-10T20:13:15.528Z,1015.67
2023-05-10T20:15:15.270Z,1015.66
2023-05-10T20:17:15.200Z,1015.69
2023-05-10T20:19:15.142Z,1015.69
2023-05-10T20:21:15.127Z,1015.69
2023-05-10T20:23:15.112Z,1015.72
2023-05-10T20:25:15.122Z,1015.72
2023-05-10T20:27:17.986Z,1015.74
2023-05-10T20:29:15.213Z,1015.74
2023-05-10T20:31:15.133Z,1015.73
2023-05-10T20:33:15.247Z,1015.68
2023-05-10T20:35:15.156Z,1015.66
2023-05-10T20:37:15.229Z,1015.66
2023-05-10T20:39:15.096Z,1015.67
2023-05-10T20:41:15.179Z,1015.68
2023-05-10T20:43:15.112Z,1015.68
2023-05-10T20:45:15.108Z,1015.71
2023-05-10T20:47:15.241Z,1015.71
2023-05-10T20:51:15.297Z,1015.65
2023-05-10T20:55:23.297Z,1015.64
2023-05-10T20:57:23.388Z,1015.64
2023-05-10T20:59:23.213Z,1015.65
2023-05-10T21:01:23.302Z,1015.65
2023-05-10T21:03:23.274Z,1015.62
2023-05-10T21:05:23.375Z,1015.62
2023-05-10T21:07:23.221Z,1015.63
2023-05-10T21:09:23.616Z,1015.61
2023-05-10T21:11:23.271Z,1015.62
2023-05-10T21:13:23.250Z,1015.59
2023-05-10T21:15:23.283Z,1015.59
2023-05-10T21:17:23.298Z,1015.54
2023-05-10T21:19:23.272Z,1015.55
2023-05-10T21:21:23.291Z,1015.57
2023-05-10T21:23:23.304Z,1015.54
2023-05-10T21:25:23.333Z,1015.54
2023-05-10T21:27:23.274Z,1015.50
2023-05-10T21:29:23.334Z,1015.52
2023-05-10T21:31:23.392Z,1015.51
2023-05-10T21:33:26.155Z,1015.51
2023-05-10T21:35:23.340Z,1015.52
2023-05-10T21:37:23.261Z,1015.53
2023-05-10T21:39:23.340Z,1015.53
2023-05-10T21:41:23.307Z,1015.53
2023-05-10T21:43:23.286Z,1015.53
2023-05-10T21:45:23.467Z,1015.57
2023-05-10T21:47:24.028Z,1015.59
2023-05-10T21:49:23.355Z,1015.57
2023-05-10T21:51:23.270Z,1015.62
2023-05-10T21:53:23.277Z,1015.62
2023-05-10T21:55:23.396Z,1015.55
2023-05-10T21:57:23.360Z,1015.55
2023-05-10T21:59:23.362Z,1015.55
2023-05-10T22:01:23.363Z,1015.54
2023-05-10T22:03:23.479Z,1015.54
2023-05-10T22:05:23.289Z,1015.50
2023-05-10T22:07:23.348Z,1015.46
2023-05-10T22:09:23.425Z,1015.47
2023-05-10T22:11:23.280Z,1015.47
2023-05-10T22:13:23.351Z,1015.46
2023-05-10T22:15:26.062Z,1015.46
2023-05-10T22:17:23.374Z,1015.46
2023-05-10T22:19:23.311Z,1015.45
2023-05-10T22:21:23.274Z,1015.45
2023-05-10T22:23:23.554Z,1015.45
2023-05-10T22:25:23.352Z,1015.52
2023-05-10T22:27:23.297Z,1015.59
2023-05-10T22:29:23.350Z,1015.56
2023-05-10T22:31:23.353Z,1015.56
2023-05-10T22:33:23.468Z,1015.58
2023-05-10T22:35:26.492Z,1015.60
2023-05-10T22:37:23.752Z,1015.59
2023-05-10T22:39:23.315Z,1015.59
2023-05-10T22:41:25.218Z,1015.60
2023-05-10T22:44:23.300Z,1015.60
2023-05-10T22:46:23.457Z,1015.60
2023-05-10T22:48:25.959Z,1015.61
2023-05-10T22:50:26.976Z,1015.63
2023-05-10T22:52:26.937Z,1015.65
2023-05-10T22:54:23.301Z,1015.65
2023-05-10T22:56:23.321Z,1015.58
2023-05-10T22:58:25.050Z,1015.60
2023-05-10T23:00:35.032Z,1015.60
2023-05-10T23:02:23.358Z,1015.60
2023-05-10T23:04:23.637Z,1015.60
2023-05-10T23:06:26.606Z,1015.57
2023-05-10T23:08:23.324Z,1015.58
2023-05-10T23:10:23.417Z,1015.60
2023-05-10T23:12:23.371Z,1015.60
2023-05-10T23:14:23.484Z,1015.57
2023-05-10T23:16:23.456Z,1015.59
2023-05-10T23:18:23.413Z,1015.59
2023-05-10T23:20:23.349Z,1015.63
2023-05-10T23:22:23.296Z,1015.63
2023-05-10T23:24:23.336Z,1015.61
2023-05-10T23:26:23.387Z,1015.62
2023-05-10T23:28:23.485Z,1015.60
2023-05-10T23:30:24.542Z,1015.62
2023-05-10T23:32:23.428Z,1015.62
2023-05-10T23:34:23.355Z,1015.61
2023-05-10T23:36:23.432Z,1015.60
2023-05-10T23:38:23.347Z,1015.60
2023-05-10T23:40:23.345Z,1015.60
2023-05-10T23:42:23.333Z,1015.59
2023-05-10T23:44:23.378Z,1015.59
2023-05-10T23:46:23.565Z,1015.57
2023-05-10T23:48:23.420Z,1015.58
2023-05-10T23:50:23.433Z,1015.58
2023-05-10T23:52:23.405Z,1015.59
2023-05-10T23:54:23.444Z,1015.59
2023-05-10T23:56:23.341Z,1015.55
2023-05-10T23:58:23.341Z,1015.55
